sensor_id;sensor_type;location;lat;lon;timestamp;temperature;humidity
32506;DHT22;18955;51.224;8.482;2024-02-14T00:01:41;8.80;77.50
32506;DHT22;18955;51.224;8.482;2024-02-14T00:04:09;8.70;77.90
32506;DHT22;18955;51.224;8.482;2024-02-14T00:06:36;8.50;78.60
32506;DHT22;18955;51.224;8.482;2024-02-14T00:09:03;8.30;79.50
32506;DHT22;18955;51.224;8.482;2024-02-14T00:11:29;8.60;78.70
32506;DHT22;18955;51.224;8.482;2024-02-14T00:13:55;8.80;77.50
32506;DHT22;18955;51.224;8.482;2024-02-14T00:16:22;8.70;78.00
32506;DHT22;18955;51.224;8.482;2024-02-14T00:18:48;8.40;79.10
32506;DHT22;18955;51.224;8.482;2024-02-14T00:21:15;8.30;79.40
32506;DHT22;18955;51.224;8.482;2024-02-14T00:23:41;8.70;78.40
32506;DHT22;18955;51.224;8.482;2024-02-14T00:26:07;8.80;77.50
32506;DHT22;18955;51.224;8.482;2024-02-14T00:28:33;8.60;78.10
32506;DHT22;18955;51.224;8.482;2024-02-14T00:30:59;8.40;78.80
32506;DHT22;18955;51.224;8.482;2024-02-14T00:33:26;8.30;79.40
32506;DHT22;18955;51.224;8.482;2024-02-14T00:35:52;8.70;78.10
32506;DHT22;18955;51.224;8.482;2024-02-14T00:38:19;8.80;77.60
32506;DHT22;18955;51.224;8.482;2024-02-14T00:40:45;8.60;78.20
32506;DHT22;18955;51.224;8.482;2024-02-14T00:43:11;8.40;79.50
32506;DHT22;18955;51.224;8.482;2024-02-14T00:45:37;8.30;79.50
32506;DHT22;18955;51.224;8.482;2024-02-14T00:48:04;8.80;78.00
32506;DHT22;18955;51.224;8.482;2024-02-14T00:50:30;8.80;77.60
32506;DHT22;18955;51.224;8.482;2024-02-14T00:52:57;8.60;78.30
32506;DHT22;18955;51.224;8.482;2024-02-14T00:55:23;8.40;79.20
32506;DHT22;18955;51.224;8.482;2024-02-14T00:57:49;8.40;79.60
32506;DHT22;18955;51.224;8.482;2024-02-14T01:00:15;8.80;77.80
32506;DHT22;18955;51.224;8.482;2024-02-14T01:02:43;8.70;77.70
32506;DHT22;18955;51.224;8.482;2024-02-14T01:05:09;8.60;78.50
32506;DHT22;18955;51.224;8.482;2024-02-14T01:07:36;8.40;79.20
32506;DHT22;18955;51.224;8.482;2024-02-14T01:10:02;8.40;79.60
32506;DHT22;18955;51.224;8.482;2024-02-14T01:12:29;8.80;77.80
32506;DHT22;18955;51.224;8.482;2024-02-14T01:14:58;8.70;77.80
32506;DHT22;18955;51.224;8.482;2024-02-14T01:17:24;8.50;78.60
32506;DHT22;18955;51.224;8.482;2024-02-14T01:19:51;8.40;79.60
32506;DHT22;18955;51.224;8.482;2024-02-14T01:22:17;8.50;79.50
32506;DHT22;18955;51.224;8.482;2024-02-14T01:24:44;8.80;77.60
32506;DHT22;18955;51.224;8.482;2024-02-14T01:27:10;8.70;77.80
32506;DHT22;18955;51.224;8.482;2024-02-14T01:29:36;8.50;78.70
32506;DHT22;18955;51.224;8.482;2024-02-14T01:32:03;8.30;79.40
32506;DHT22;18955;51.224;8.482;2024-02-14T01:34:30;8.50;79.20
32506;DHT22;18955;51.224;8.482;2024-02-14T01:36:57;8.80;77.80
32506;DHT22;18955;51.224;8.482;2024-02-14T01:39:23;8.70;78.10
32506;DHT22;18955;51.224;8.482;2024-02-14T01:41:49;8.50;78.80
32506;DHT22;18955;51.224;8.482;2024-02-14T01:44:16;8.30;79.50
32506;DHT22;18955;51.224;8.482;2024-02-14T01:46:43;8.70;78.60
32506;DHT22;18955;51.224;8.482;2024-02-14T01:49:09;8.80;77.60
32506;DHT22;18955;51.224;8.482;2024-02-14T01:51:38;8.70;78.10
32506;DHT22;18955;51.224;8.482;2024-02-14T01:54:05;8.50;78.90
32506;DHT22;18955;51.224;8.482;2024-02-14T01:56:33;8.30;79.50
32506;DHT22;18955;51.224;8.482;2024-02-14T01:58:59;8.80;78.30
32506;DHT22;18955;51.224;8.482;2024-02-14T02:01:26;8.80;77.70
32506;DHT22;18955;51.224;8.482;2024-02-14T02:03:54;8.60;78.30
32506;DHT22;18955;51.224;8.482;2024-02-14T02:06:21;8.50;79.10
32506;DHT22;18955;51.224;8.482;2024-02-14T02:08:47;8.40;79.60
32506;DHT22;18955;51.224;8.482;2024-02-14T02:11:14;8.80;78.00
32506;DHT22;18955;51.224;8.482;2024-02-14T02:13:40;8.90;77.70
32506;DHT22;18955;51.224;8.482;2024-02-14T02:16:07;8.60;78.30
32506;DHT22;18955;51.224;8.482;2024-02-14T02:18:34;8.50;79.30
32506;DHT22;18955;51.224;8.482;2024-02-14T02:21:00;8.40;79.70
32506;DHT22;18955;51.224;8.482;2024-02-14T02:23:29;8.90;77.80
32506;DHT22;18955;51.224;8.482;2024-02-14T02:25:57;8.90;77.70
32506;DHT22;18955;51.224;8.482;2024-02-14T02:28:23;8.70;78.50
32506;DHT22;18955;51.224;8.482;2024-02-14T02:30:49;8.50;79.20
32506;DHT22;18955;51.224;8.482;2024-02-14T02:33:16;8.50;79.80
32506;DHT22;18955;51.224;8.482;2024-02-14T02:35:42;8.90;77.90
32506;DHT22;18955;51.224;8.482;2024-02-14T02:38:11;8.80;77.80
32506;DHT22;18955;51.224;8.482;2024-02-14T02:40:38;8.60;78.50
32506;DHT22;18955;51.224;8.482;2024-02-14T02:43:04;8.40;79.30
32506;DHT22;18955;51.224;8.482;2024-02-14T02:45:31;8.50;79.70
32506;DHT22;18955;51.224;8.482;2024-02-14T02:47:58;8.80;77.90
32506;DHT22;18955;51.224;8.482;2024-02-14T02:50:26;8.80;78.50
32506;DHT22;18955;51.224;8.482;2024-02-14T02:52:53;8.60;78.80
32506;DHT22;18955;51.224;8.482;2024-02-14T02:55:20;8.40;79.50
32506;DHT22;18955;51.224;8.482;2024-02-14T02:57:47;8.60;79.40
32506;DHT22;18955;51.224;8.482;2024-02-14T03:00:13;8.90;77.80
32506;DHT22;18955;51.224;8.482;2024-02-14T03:02:39;8.80;78.00
32506;DHT22;18955;51.224;8.482;2024-02-14T03:05:08;8.60;78.80
32506;DHT22;18955;51.224;8.482;2024-02-14T03:07:36;8.40;79.60
32506;DHT22;18955;51.224;8.482;2024-02-14T03:10:03;8.70;79.20
32506;DHT22;18955;51.224;8.482;2024-02-14T03:12:30;8.90;77.80
32506;DHT22;18955;51.224;8.482;2024-02-14T03:14:57;8.80;78.20
32506;DHT22;18955;51.224;8.482;2024-02-14T03:17:26;8.60;79.00
32506;DHT22;18955;51.224;8.482;2024-02-14T03:19:54;8.40;79.60
32506;DHT22;18955;51.224;8.482;2024-02-14T03:22:22;8.80;79.00
32506;DHT22;18955;51.224;8.482;2024-02-14T03:24:48;8.90;78.00
32506;DHT22;18955;51.224;8.482;2024-02-14T03:27:15;8.70;78.40
32506;DHT22;18955;51.224;8.482;2024-02-14T03:29:43;8.50;79.10
32506;DHT22;18955;51.224;8.482;2024-02-14T03:32:10;8.40;79.80
32506;DHT22;18955;51.224;8.482;2024-02-14T03:34:36;8.70;78.80
32506;DHT22;18955;51.224;8.482;2024-02-14T03:37:02;8.80;78.30
32506;DHT22;18955;51.224;8.482;2024-02-14T03:39:29;8.70;78.80
32506;DHT22;18955;51.224;8.482;2024-02-14T03:41:56;8.50;79.50
32506;DHT22;18955;51.224;8.482;2024-02-14T03:44:23;8.40;80.00
32506;DHT22;18955;51.224;8.482;2024-02-14T03:46:49;8.90;78.30
32506;DHT22;18955;51.224;8.482;2024-02-14T03:49:16;8.90;78.00
32506;DHT22;18955;51.224;8.482;2024-02-14T03:51:42;8.70;78.70
32506;DHT22;18955;51.224;8.482;2024-02-14T03:54:08;8.50;79.40
32506;DHT22;18955;51.224;8.482;2024-02-14T03:56:35;8.50;80.00
32506;DHT22;18955;51.224;8.482;2024-02-14T03:59:03;8.90;78.30
32506;DHT22;18955;51.224;8.482;2024-02-14T04:01:31;8.90;78.10
32506;DHT22;18955;51.224;8.482;2024-02-14T04:03:58;8.70;78.80
32506;DHT22;18955;51.224;8.482;2024-02-14T04:06:24;8.50;79.50
32506;DHT22;18955;51.224;8.482;2024-02-14T04:08:52;8.50;80.00
32506;DHT22;18955;51.224;8.482;2024-02-14T04:11:18;9.00;78.10
32506;DHT22;18955;51.224;8.482;2024-02-14T04:13:45;8.90;78.10
32506;DHT22;18955;51.224;8.482;2024-02-14T04:16:11;8.70;78.80
32506;DHT22;18955;51.224;8.482;2024-02-14T04:18:37;8.50;79.50
32506;DHT22;18955;51.224;8.482;2024-02-14T04:21:07;8.50;80.10
32506;DHT22;18955;51.224;8.482;2024-02-14T04:23:33;8.90;78.30
32506;DHT22;18955;51.224;8.482;2024-02-14T04:25:59;8.80;78.30
32506;DHT22;18955;51.224;8.482;2024-02-14T04:28:25;8.70;79.10
32506;DHT22;18955;51.224;8.482;2024-02-14T04:30:51;8.50;79.70
32506;DHT22;18955;51.224;8.482;2024-02-14T04:33:19;8.70;79.80
32506;DHT22;18955;51.224;8.482;2024-02-14T04:35:45;9.00;78.10
32506;DHT22;18955;51.224;8.482;2024-02-14T04:38:11;8.90;78.30
32506;DHT22;18955;51.224;8.482;2024-02-14T04:40:38;8.70;79.10
32506;DHT22;18955;51.224;8.482;2024-02-14T04:43:05;8.50;79.80
32506;DHT22;18955;51.224;8.482;2024-02-14T04:45:31;8.70;80.40
32506;DHT22;18955;51.224;8.482;2024-02-14T04:47:57;9.00;78.10
32506;DHT22;18955;51.224;8.482;2024-02-14T04:50:23;8.90;78.40
32506;DHT22;18955;51.224;8.482;2024-02-14T04:52:49;8.70;79.10
32506;DHT22;18955;51.224;8.482;2024-02-14T04:55:16;8.50;79.80
32506;DHT22;18955;51.224;8.482;2024-02-14T04:57:42;8.70;79.60
32506;DHT22;18955;51.224;8.482;2024-02-14T05:00:09;9.10;78.10
32506;DHT22;18955;51.224;8.482;2024-02-14T05:02:36;8.90;78.30
32506;DHT22;18955;51.224;8.482;2024-02-14T05:05:03;8.70;79.60
32506;DHT22;18955;51.224;8.482;2024-02-14T05:07:29;8.60;79.80
32506;DHT22;18955;51.224;8.482;2024-02-14T05:09:55;8.70;79.80
32506;DHT22;18955;51.224;8.482;2024-02-14T05:12:22;9.00;78.10
32506;DHT22;18955;51.224;8.482;2024-02-14T05:14:48;8.90;78.30
32506;DHT22;18955;51.224;8.482;2024-02-14T05:17:15;8.70;79.10
32506;DHT22;18955;51.224;8.482;2024-02-14T05:19:44;8.60;79.80
32506;DHT22;18955;51.224;8.482;2024-02-14T05:22:10;8.70;79.90
32506;DHT22;18955;51.224;8.482;2024-02-14T05:24:36;9.10;78.20
32506;DHT22;18955;51.224;8.482;2024-02-14T05:27:04;8.90;78.40
32506;DHT22;18955;51.224;8.482;2024-02-14T05:29:31;8.70;79.20
32506;DHT22;18955;51.224;8.482;2024-02-14T05:31:57;8.60;79.90
32506;DHT22;18955;51.224;8.482;2024-02-14T05:34:23;8.80;79.80
32506;DHT22;18955;51.224;8.482;2024-02-14T05:36:50;9.10;78.30
32506;DHT22;18955;51.224;8.482;2024-02-14T05:39:17;8.90;78.50
32506;DHT22;18955;51.224;8.482;2024-02-14T05:41:43;8.80;79.40
32506;DHT22;18955;51.224;8.482;2024-02-14T05:44:10;8.60;80.00
32506;DHT22;18955;51.224;8.482;2024-02-14T05:46:36;8.80;80.30
32506;DHT22;18955;51.224;8.482;2024-02-14T05:49:02;9.10;78.40
32506;DHT22;18955;51.224;8.482;2024-02-14T05:51:28;9.00;78.60
32506;DHT22;18955;51.224;8.482;2024-02-14T05:53:55;8.70;79.30
32506;DHT22;18955;51.224;8.482;2024-02-14T05:56:21;8.60;80.10
32506;DHT22;18955;51.224;8.482;2024-02-14T05:58:47;8.80;80.00
32506;DHT22;18955;51.224;8.482;2024-02-14T06:01:13;9.10;78.50
32506;DHT22;18955;51.224;8.482;2024-02-14T06:03:41;9.00;78.80
32506;DHT22;18955;51.224;8.482;2024-02-14T06:06:09;8.80;79.50
32506;DHT22;18955;51.224;8.482;2024-02-14T06:08:35;8.60;80.20
32506;DHT22;18955;51.224;8.482;2024-02-14T06:11:01;8.80;79.90
32506;DHT22;18955;51.224;8.482;2024-02-14T06:13:27;9.20;78.30
32506;DHT22;18955;51.224;8.482;2024-02-14T06:15:53;9.00;78.60
32506;DHT22;18955;51.224;8.482;2024-02-14T06:18:19;8.80;79.30
32506;DHT22;18955;51.224;8.482;2024-02-14T06:20:46;8.60;80.10
32506;DHT22;18955;51.224;8.482;2024-02-14T06:23:12;8.80;80.20
32506;DHT22;18955;51.224;8.482;2024-02-14T06:25:38;9.10;78.50
32506;DHT22;18955;51.224;8.482;2024-02-14T06:28:05;9.00;78.70
32506;DHT22;18955;51.224;8.482;2024-02-14T06:30:31;8.80;79.40
32506;DHT22;18955;51.224;8.482;2024-02-14T06:32:57;8.70;80.20
32506;DHT22;18955;51.224;8.482;2024-02-14T06:35:26;8.80;80.50
32506;DHT22;18955;51.224;8.482;2024-02-14T06:37:53;9.20;78.50
32506;DHT22;18955;51.224;8.482;2024-02-14T06:40:19;9.10;78.70
32506;DHT22;18955;51.224;8.482;2024-02-14T06:42:45;8.90;79.30
32506;DHT22;18955;51.224;8.482;2024-02-14T06:45:11;8.70;80.00
32506;DHT22;18955;51.224;8.482;2024-02-14T06:47:38;8.70;80.60
32506;DHT22;18955;51.224;8.482;2024-02-14T06:50:05;9.10;78.70
32506;DHT22;18955;51.224;8.482;2024-02-14T06:52:31;9.10;78.70
32506;DHT22;18955;51.224;8.482;2024-02-14T06:54:57;8.90;79.40
32506;DHT22;18955;51.224;8.482;2024-02-14T06:57:23;8.70;80.00
32506;DHT22;18955;51.224;8.482;2024-02-14T06:59:49;8.70;81.20
32506;DHT22;18955;51.224;8.482;2024-02-14T07:02:16;9.10;78.80
32506;DHT22;18955;51.224;8.482;2024-02-14T07:04:42;9.10;78.70
32506;DHT22;18955;51.224;8.482;2024-02-14T07:07:08;8.90;79.40
32506;DHT22;18955;51.224;8.482;2024-02-14T07:09:35;8.70;80.10
32506;DHT22;18955;51.224;8.482;2024-02-14T07:12:02;8.70;80.70
32506;DHT22;18955;51.224;8.482;2024-02-14T07:14:29;9.10;79.10
32506;DHT22;18955;51.224;8.482;2024-02-14T07:16:55;9.10;78.80
32506;DHT22;18955;51.224;8.482;2024-02-14T07:19:21;8.90;79.50
32506;DHT22;18955;51.224;8.482;2024-02-14T07:21:48;8.70;80.10
32506;DHT22;18955;51.224;8.482;2024-02-14T07:24:14;8.70;80.70
32506;DHT22;18955;51.224;8.482;2024-02-14T07:26:40;9.20;79.10
32506;DHT22;18955;51.224;8.482;2024-02-14T07:29:07;9.20;78.70
32506;DHT22;18955;51.224;8.482;2024-02-14T07:31:33;9.00;79.30
32506;DHT22;18955;51.224;8.482;2024-02-14T07:34:00;8.80;80.00
32506;DHT22;18955;51.224;8.482;2024-02-14T07:36:26;8.70;80.60
32506;DHT22;18955;51.224;8.482;2024-02-14T07:38:52;9.20;79.20
32506;DHT22;18955;51.224;8.482;2024-02-14T07:41:19;9.20;78.60
32506;DHT22;18955;51.224;8.482;2024-02-14T07:43:45;9.00;79.10
32506;DHT22;18955;51.224;8.482;2024-02-14T07:46:19;8.90;79.90
32506;DHT22;18955;51.224;8.482;2024-02-14T07:48:45;8.70;80.60
32506;DHT22;18955;51.224;8.482;2024-02-14T07:51:12;9.20;79.40
32506;DHT22;18955;51.224;8.482;2024-02-14T07:53:38;9.30;78.60
32506;DHT22;18955;51.224;8.482;2024-02-14T07:56:05;9.10;79.20
32506;DHT22;18955;51.224;8.482;2024-02-14T07:58:31;8.90;80.00
32506;DHT22;18955;51.224;8.482;2024-02-14T08:00:57;8.80;80.70
32506;DHT22;18955;51.224;8.482;2024-02-14T08:03:23;9.10;80.70
32506;DHT22;18955;51.224;8.482;2024-02-14T08:05:50;9.30;78.90
32506;DHT22;18955;51.224;8.482;2024-02-14T08:08:17;9.10;79.20
32506;DHT22;18955;51.224;8.482;2024-02-14T08:10:43;9.00;79.90
32506;DHT22;18955;51.224;8.482;2024-02-14T08:13:09;8.80;80.50
32506;DHT22;18955;51.224;8.482;2024-02-14T08:15:37;9.00;80.80
32506;DHT22;18955;51.224;8.482;2024-02-14T08:18:03;9.30;78.90
32506;DHT22;18955;51.224;8.482;2024-02-14T08:20:29;9.20;79.00
32506;DHT22;18955;51.224;8.482;2024-02-14T08:22:56;9.00;79.70
32506;DHT22;18955;51.224;8.482;2024-02-14T08:25:22;8.90;80.40
32506;DHT22;18955;51.224;8.482;2024-02-14T08:27:48;8.90;81.00
32506;DHT22;18955;51.224;8.482;2024-02-14T08:30:14;9.30;79.00
32506;DHT22;18955;51.224;8.482;2024-02-14T08:32:41;9.30;78.90
32506;DHT22;18955;51.224;8.482;2024-02-14T08:35:07;9.10;79.60
32506;DHT22;18955;51.224;8.482;2024-02-14T08:37:35;8.90;80.30
32506;DHT22;18955;51.224;8.482;2024-02-14T08:40:07;8.80;80.90
32506;DHT22;18955;51.224;8.482;2024-02-14T08:42:34;9.30;79.50
32506;DHT22;18955;51.224;8.482;2024-02-14T08:45:01;9.40;78.80
32506;DHT22;18955;51.224;8.482;2024-02-14T08:47:27;9.20;79.40
32506;DHT22;18955;51.224;8.482;2024-02-14T08:49:53;9.00;80.20
32506;DHT22;18955;51.224;8.482;2024-02-14T08:52:19;8.90;80.90
32506;DHT22;18955;51.224;8.482;2024-02-14T08:54:47;9.20;80.30
32506;DHT22;18955;51.224;8.482;2024-02-14T08:57:13;9.40;79.00
32506;DHT22;18955;51.224;8.482;2024-02-14T08:59:39;9.30;79.30
32506;DHT22;18955;51.224;8.482;2024-02-14T09:02:09;9.10;80.10
32506;DHT22;18955;51.224;8.482;2024-02-14T09:04:35;8.90;80.70
32506;DHT22;18955;51.224;8.482;2024-02-14T09:07:01;9.00;81.20
32506;DHT22;18955;51.224;8.482;2024-02-14T09:09:28;9.40;79.10
32506;DHT22;18955;51.224;8.482;2024-02-14T09:11:54;9.40;79.10
32506;DHT22;18955;51.224;8.482;2024-02-14T09:14:21;9.20;79.80
32506;DHT22;18955;51.224;8.482;2024-02-14T09:16:47;9.00;80.70
32506;DHT22;18955;51.224;8.482;2024-02-14T09:19:13;9.00;81.20
32506;DHT22;18955;51.224;8.482;2024-02-14T09:21:39;9.40;79.50
32506;DHT22;18955;51.224;8.482;2024-02-14T09:24:06;9.50;79.00
32506;DHT22;18955;51.224;8.482;2024-02-14T09:26:32;9.30;79.50
32506;DHT22;18955;51.224;8.482;2024-02-14T09:28:58;9.10;80.40
32506;DHT22;18955;51.224;8.482;2024-02-14T09:31:25;9.00;80.90
32506;DHT22;18955;51.224;8.482;2024-02-14T09:33:51;9.30;80.60
32506;DHT22;18955;51.224;8.482;2024-02-14T09:36:22;9.50;79.00
32506;DHT22;18955;51.224;8.482;2024-02-14T09:38:51;9.40;79.20
32506;DHT22;18955;51.224;8.482;2024-02-14T09:44:03;9.10;80.70
32506;DHT22;18955;51.224;8.482;2024-02-14T09:46:29;9.10;81.30
32506;DHT22;18955;51.224;8.482;2024-02-14T09:48:58;9.60;79.40
32506;DHT22;18955;51.224;8.482;2024-02-14T09:51:28;9.50;79.10
32506;DHT22;18955;51.224;8.482;2024-02-14T09:53:55;9.30;79.80
32506;DHT22;18955;51.224;8.482;2024-02-14T09:56:22;9.10;80.50
32506;DHT22;18955;51.224;8.482;2024-02-14T09:58:50;9.00;81.10
32506;DHT22;18955;51.224;8.482;2024-02-14T10:01:22;9.50;79.80
32506;DHT22;18955;51.224;8.482;2024-02-14T10:03:50;9.60;79.10
32506;DHT22;18955;51.224;8.482;2024-02-14T10:06:20;9.50;79.60
32506;DHT22;18955;51.224;8.482;2024-02-14T10:08:50;9.20;80.30
32506;DHT22;18955;51.224;8.482;2024-02-14T10:11:19;9.10;81.20
32506;DHT22;18955;51.224;8.482;2024-02-14T10:13:49;9.40;80.80
32506;DHT22;18955;51.224;8.482;2024-02-14T10:16:17;9.70;79.00
32506;DHT22;18955;51.224;8.482;2024-02-14T10:18:45;9.60;79.30
32506;DHT22;18955;51.224;8.482;2024-02-14T10:21:16;9.30;80.10
32506;DHT22;18955;51.224;8.482;2024-02-14T10:23:45;9.20;80.80
32506;DHT22;18955;51.224;8.482;2024-02-14T10:26:16;9.10;81.50
32506;DHT22;18955;51.224;8.482;2024-02-14T10:28:43;9.70;79.60
32506;DHT22;18955;51.224;8.482;2024-02-14T10:31:12;9.70;79.30
32506;DHT22;18955;51.224;8.482;2024-02-14T10:33:39;9.50;79.90
32506;DHT22;18955;51.224;8.482;2024-02-14T10:36:07;9.30;80.70
32506;DHT22;18955;51.224;8.482;2024-02-14T10:38:34;9.10;81.30
32506;DHT22;18955;51.224;8.482;2024-02-14T10:41:01;9.40;81.00
32506;DHT22;18955;51.224;8.482;2024-02-14T10:43:28;9.70;79.40
32506;DHT22;18955;51.224;8.482;2024-02-14T10:45:55;9.60;79.70
32506;DHT22;18955;51.224;8.482;2024-02-14T10:48:22;9.40;80.30
32506;DHT22;18955;51.224;8.482;2024-02-14T10:50:53;9.30;81.10
32506;DHT22;18955;51.224;8.482;2024-02-14T10:53:20;9.20;81.60
32506;DHT22;18955;51.224;8.482;2024-02-14T10:55:48;9.70;80.00
32506;DHT22;18955;51.224;8.482;2024-02-14T10:58:18;9.70;79.50
32506;DHT22;18955;51.224;8.482;2024-02-14T11:00:45;9.60;80.10
32506;DHT22;18955;51.224;8.482;2024-02-14T11:03:13;9.40;80.90
32506;DHT22;18955;51.224;8.482;2024-02-14T11:05:48;9.30;81.50
32506;DHT22;18955;51.224;8.482;2024-02-14T11:08:18;9.50;81.30
32506;DHT22;18955;51.224;8.482;2024-02-14T11:10:54;9.80;79.70
32506;DHT22;18955;51.224;8.482;2024-02-14T11:13:21;9.70;79.90
32506;DHT22;18955;51.224;8.482;2024-02-14T11:15:51;9.50;80.60
32506;DHT22;18955;51.224;8.482;2024-02-14T11:18:25;9.30;81.30
32506;DHT22;18955;51.224;8.482;2024-02-14T11:20:52;9.30;81.90
32506;DHT22;18955;51.224;8.482;2024-02-14T11:23:22;9.70;80.30
32506;DHT22;18955;51.224;8.482;2024-02-14T11:25:48;9.80;79.70
32506;DHT22;18955;51.224;8.482;2024-02-14T11:28:15;9.70;80.30
32506;DHT22;18955;51.224;8.482;2024-02-14T11:30:43;9.50;81.00
32506;DHT22;18955;51.224;8.482;2024-02-14T11:35:40;9.40;81.80
32506;DHT22;18955;51.224;8.482;2024-02-14T11:38:08;9.90;80.00
32506;DHT22;18955;51.224;8.482;2024-02-14T11:40:38;9.80;79.80
32506;DHT22;18955;51.224;8.482;2024-02-14T11:43:13;9.60;80.60
32506;DHT22;18955;51.224;8.482;2024-02-14T11:45:43;9.50;81.20
32506;DHT22;18955;51.224;8.482;2024-02-14T11:48:12;9.40;81.80
32506;DHT22;18955;51.224;8.482;2024-02-14T11:50:40;9.80;81.00
32506;DHT22;18955;51.224;8.482;2024-02-14T11:53:07;9.90;79.90
32506;DHT22;18955;51.224;8.482;2024-02-14T11:55:37;9.80;80.30
32506;DHT22;18955;51.224;8.482;2024-02-14T11:58:11;9.60;81.00
32506;DHT22;18955;51.224;8.482;2024-02-14T12:00:45;9.50;81.60
32506;DHT22;18955;51.224;8.482;2024-02-14T12:03:19;9.40;82.00
32506;DHT22;18955;51.224;8.482;2024-02-14T12:05:47;9.90;80.40
32506;DHT22;18955;51.224;8.482;2024-02-14T12:08:14;9.90;80.00
32506;DHT22;18955;51.224;8.482;2024-02-14T12:10:44;9.70;80.50
32506;DHT22;18955;51.224;8.482;2024-02-14T12:13:17;9.60;81.20
32506;DHT22;18955;51.224;8.482;2024-02-14T12:15:48;9.50;81.80
32506;DHT22;18955;51.224;8.482;2024-02-14T12:18:16;9.60;82.10
32506;DHT22;18955;51.224;8.482;2024-02-14T12:20:44;10.00;80.20
32506;DHT22;18955;51.224;8.482;2024-02-14T12:23:18;9.90;80.10
32506;DHT22;18955;51.224;8.482;2024-02-14T12:25:47;9.80;80.90
32506;DHT22;18955;51.224;8.482;2024-02-14T12:28:17;9.60;81.50
32506;DHT22;18955;51.224;8.482;2024-02-14T12:30:45;9.50;82.00
32506;DHT22;18955;51.224;8.482;2024-02-14T12:33:17;9.80;81.70
32506;DHT22;18955;51.224;8.482;2024-02-14T12:35:50;10.10;80.10
32506;DHT22;18955;51.224;8.482;2024-02-14T12:38:17;9.90;80.20
32506;DHT22;18955;51.224;8.482;2024-02-14T12:40:44;9.80;80.90
32506;DHT22;18955;51.224;8.482;2024-02-14T12:43:12;9.60;81.50
32506;DHT22;18955;51.224;8.482;2024-02-14T12:45:39;9.50;82.10
32506;DHT22;18955;51.224;8.482;2024-02-14T12:48:06;9.90;81.50
32506;DHT22;18955;51.224;8.482;2024-02-14T12:50:35;10.20;80.00
32506;DHT22;18955;51.224;8.482;2024-02-14T12:53:02;10.00;80.30
32506;DHT22;18955;51.224;8.482;2024-02-14T12:55:28;9.90;81.10
32506;DHT22;18955;51.224;8.482;2024-02-14T12:57:55;9.70;81.60
32506;DHT22;18955;51.224;8.482;2024-02-14T13:00:22;9.60;82.20
32506;DHT22;18955;51.224;8.482;2024-02-14T13:02:49;9.90;81.60
32506;DHT22;18955;51.224;8.482;2024-02-14T13:05:15;10.10;80.20
32506;DHT22;18955;51.224;8.482;2024-02-14T13:07:43;10.00;80.40
32506;DHT22;18955;51.224;8.482;2024-02-14T13:10:09;9.90;81.10
32506;DHT22;18955;51.224;8.482;2024-02-14T13:12:39;9.70;81.90
32506;DHT22;18955;51.224;8.482;2024-02-14T13:15:06;9.70;82.30
32506;DHT22;18955;51.224;8.482;2024-02-14T13:17:32;9.80;82.60
32506;DHT22;18955;51.224;8.482;2024-02-14T13:19:59;10.20;80.50
32506;DHT22;18955;51.224;8.482;2024-02-14T13:22:26;10.10;80.50
32506;DHT22;18955;51.224;8.482;2024-02-14T13:24:52;9.90;81.10
32506;DHT22;18955;51.224;8.482;2024-02-14T13:27:18;9.80;81.70
32506;DHT22;18955;51.224;8.482;2024-02-14T13:29:47;9.70;82.20
32506;DHT22;18955;51.224;8.482;2024-02-14T13:32:14;9.80;82.60
32506;DHT22;18955;51.224;8.482;2024-02-14T13:34:40;10.20;80.70
32506;DHT22;18955;51.224;8.482;2024-02-14T13:37:06;10.20;80.40
32506;DHT22;18955;51.224;8.482;2024-02-14T13:39:32;10.00;80.90
32506;DHT22;18955;51.224;8.482;2024-02-14T13:41:59;9.90;81.70
32506;DHT22;18955;51.224;8.482;2024-02-14T13:44:27;9.80;82.10
32506;DHT22;18955;51.224;8.482;2024-02-14T13:46:54;9.70;82.50
32506;DHT22;18955;51.224;8.482;2024-02-14T13:49:20;10.20;80.90
32506;DHT22;18955;51.224;8.482;2024-02-14T13:51:50;10.30;80.40
32506;DHT22;18955;51.224;8.482;2024-02-14T13:54:23;10.10;80.80
32506;DHT22;18955;51.224;8.482;2024-02-14T13:56:50;10.00;81.60
32506;DHT22;18955;51.224;8.482;2024-02-14T13:59:17;9.90;82.20
32506;DHT22;18955;51.224;8.482;2024-02-14T14:01:45;9.70;82.50
32506;DHT22;18955;51.224;8.482;2024-02-14T14:04:12;10.20;81.70
32506;DHT22;18955;51.224;8.482;2024-02-14T14:06:39;10.40;80.30
32506;DHT22;18955;51.224;8.482;2024-02-14T14:09:05;10.20;80.60
32506;DHT22;18955;51.224;8.482;2024-02-14T14:11:34;10.10;81.30
32506;DHT22;18955;51.224;8.482;2024-02-14T14:14:00;9.90;82.00
32506;DHT22;18955;51.224;8.482;2024-02-14T14:16:27;9.90;82.40
32506;DHT22;18955;51.224;8.482;2024-02-14T14:18:53;9.90;82.80
32506;DHT22;18955;51.224;8.482;2024-02-14T14:21:19;10.40;80.70
32506;DHT22;18955;51.224;8.482;2024-02-14T14:23:45;10.40;80.50
32506;DHT22;18955;51.224;8.482;2024-02-14T14:26:13;10.20;81.10
32506;DHT22;18955;51.224;8.482;2024-02-14T14:28:39;10.10;81.80
32506;DHT22;18955;51.224;8.482;2024-02-14T14:31:05;9.90;82.20
32506;DHT22;18955;51.224;8.482;2024-02-14T14:33:32;9.90;82.60
32506;DHT22;18955;51.224;8.482;2024-02-14T14:35:58;10.30;81.60
32506;DHT22;18955;51.224;8.482;2024-02-14T14:38:24;10.50;80.60
32506;DHT22;18955;51.224;8.482;2024-02-14T14:40:52;10.30;80.80
32506;DHT22;18955;51.224;8.482;2024-02-14T14:43:21;10.20;81.50
32506;DHT22;18955;51.224;8.482;2024-02-14T14:45:48;10.10;82.20
32506;DHT22;18955;51.224;8.482;2024-02-14T14:48:15;9.90;82.50
32506;DHT22;18955;51.224;8.482;2024-02-14T14:50:43;10.00;82.90
32506;DHT22;18955;51.224;8.482;2024-02-14T14:53:09;10.40;81.10
32506;DHT22;18955;51.224;8.482;2024-02-14T14:55:56;10.50;80.70
32506;DHT22;18955;51.224;8.482;2024-02-14T14:58:23;10.30;81.30
32506;DHT22;18955;51.224;8.482;2024-02-14T15:00:54;10.10;81.90
32506;DHT22;18955;51.224;8.482;2024-02-14T15:03:26;10.00;82.40
32506;DHT22;18955;51.224;8.482;2024-02-14T15:05:53;9.90;82.70
32506;DHT22;18955;51.224;8.482;2024-02-14T15:08:19;10.30;82.00
32506;DHT22;18955;51.224;8.482;2024-02-14T15:10:54;10.50;80.60
32506;DHT22;18955;51.224;8.482;2024-02-14T15:13:22;10.40;81.00
32506;DHT22;18955;51.224;8.482;2024-02-14T15:15:48;10.30;81.70
32506;DHT22;18955;51.224;8.482;2024-02-14T15:18:14;10.10;82.30
32506;DHT22;18955;51.224;8.482;2024-02-14T15:20:41;10.00;82.60
32506;DHT22;18955;51.224;8.482;2024-02-14T15:23:07;10.00;83.00
32506;DHT22;18955;51.224;8.482;2024-02-14T15:25:35;10.50;81.40
32506;DHT22;18955;51.224;8.482;2024-02-14T15:28:09;10.60;80.60
32506;DHT22;18955;51.224;8.482;2024-02-14T15:30:44;10.50;81.10
32506;DHT22;18955;51.224;8.482;2024-02-14T15:33:28;10.30;81.80
32506;DHT22;18955;51.224;8.482;2024-02-14T15:35:56;10.20;82.40
32506;DHT22;18955;51.224;8.482;2024-02-14T15:38:23;10.00;82.70
32506;DHT22;18955;51.224;8.482;2024-02-14T15:40:51;10.10;83.00
32506;DHT22;18955;51.224;8.482;2024-02-14T15:43:24;10.60;80.90
32506;DHT22;18955;51.224;8.482;2024-02-14T15:45:51;10.60;80.70
32506;DHT22;18955;51.224;8.482;2024-02-14T15:48:17;10.40;81.30
32506;DHT22;18955;51.224;8.482;2024-02-14T15:50:45;10.30;82.00